Terminal Aerodrome Forecast
Issued by NWS

Home | Current Version | Previous Version | Text Only | Print | Product List | Glossary On
Versions: 1 2 3 4 5 6 7 8 9 10 11 12
000
FTUS43 KIND 301100
TAFBMG
TAF
KBMG 301120Z 3012/3112 29005KT P6SM SKC
     FM301600 27010G15KT P6SM SCT250
     FM302200 22009KT P6SM SCT150
     FM310000 23005KT P6SM SCT150
     FM310800 23008KT P6SM SKC
      AMD LTD TO CLD VIS AND WIND TIL 301300=

USA.gov is the U.S. government's official web portal to all federal, state and local government web resources and services.